sensor_id;sensor_type;location;lat;lon;timestamp;P1;durP1;ratioP1;P2;durP2;ratioP2
6549;SDS011;15142;48.888;9.134;2023-04-25T00:01:13;1.83;;;1.73;;
6549;SDS011;15142;48.888;9.134;2023-04-25T00:03:42;2.47;;;2.27;;
6549;SDS011;15142;48.888;9.134;2023-04-25T00:06:11;4.50;;;3.00;;
6549;SDS011;15142;48.888;9.134;2023-04-25T00:08:41;3.23;;;3.00;;
6549;SDS011;15142;48.888;9.134;2023-04-25T00:11:12;2.50;;;2.10;;
6549;SDS011;15142;48.888;9.134;2023-04-25T00:13:40;2.70;;;2.30;;
6549;SDS011;15142;48.888;9.134;2023-04-25T00:16:09;6.33;;;2.60;;
6549;SDS011;15142;48.888;9.134;2023-04-25T00:18:41;3.00;;;2.37;;
6549;SDS011;15142;48.888;9.134;2023-04-25T00:21:11;2.67;;;2.23;;
6549;SDS011;15142;48.888;9.134;2023-04-25T00:23:40;4.77;;;3.57;;
6549;SDS011;15142;48.888;9.134;2023-04-25T00:26:11;2.73;;;2.53;;
6549;SDS011;15142;48.888;9.134;2023-04-25T00:28:40;5.90;;;2.70;;
6549;SDS011;15142;48.888;9.134;2023-04-25T00:31:08;2.57;;;2.47;;
6549;SDS011;15142;48.888;9.134;2023-04-25T00:33:37;2.63;;;2.47;;
6549;SDS011;15142;48.888;9.134;2023-04-25T00:36:08;3.40;;;2.73;;
6549;SDS011;15142;48.888;9.134;2023-04-25T00:38:38;3.10;;;2.37;;
6549;SDS011;15142;48.888;9.134;2023-04-25T00:41:07;1.70;;;1.60;;
6549;SDS011;15142;48.888;9.134;2023-04-25T00:43:36;5.17;;;2.90;;
6549;SDS011;15142;48.888;9.134;2023-04-25T00:46:04;3.00;;;2.70;;
6549;SDS011;15142;48.888;9.134;2023-04-25T00:48:33;3.20;;;2.43;;
6549;SDS011;15142;48.888;9.134;2023-04-25T00:51:02;2.50;;;2.30;;
6549;SDS011;15142;48.888;9.134;2023-04-25T00:53:34;8.63;;;2.57;;
6549;SDS011;15142;48.888;9.134;2023-04-25T00:56:02;3.03;;;2.83;;
6549;SDS011;15142;48.888;9.134;2023-04-25T00:58:31;2.10;;;2.00;;
6549;SDS011;15142;48.888;9.134;2023-04-25T01:01:00;3.20;;;2.40;;
6549;SDS011;15142;48.888;9.134;2023-04-25T01:03:30;2.60;;;2.40;;
6549;SDS011;15142;48.888;9.134;2023-04-25T01:06:01;2.50;;;2.30;;
6549;SDS011;15142;48.888;9.134;2023-04-25T01:08:30;6.70;;;2.80;;
6549;SDS011;15142;48.888;9.134;2023-04-25T01:11:01;3.30;;;3.07;;
6549;SDS011;15142;48.888;9.134;2023-04-25T01:13:30;3.20;;;2.97;;
6549;SDS011;15142;48.888;9.134;2023-04-25T01:15:59;2.40;;;2.20;;
6549;SDS011;15142;48.888;9.134;2023-04-25T01:18:29;4.37;;;2.10;;
6549;SDS011;15142;48.888;9.134;2023-04-25T01:21:03;3.13;;;2.87;;
6549;SDS011;15142;48.888;9.134;2023-04-25T01:23:36;4.70;;;3.20;;
6549;SDS011;15142;48.888;9.134;2023-04-25T01:26:06;5.63;;;2.90;;
6549;SDS011;15142;48.888;9.134;2023-04-25T01:28:37;3.80;;;2.00;;
6549;SDS011;15142;48.888;9.134;2023-04-25T01:31:07;2.37;;;2.13;;
6549;SDS011;15142;48.888;9.134;2023-04-25T01:33:38;4.27;;;2.10;;
6549;SDS011;15142;48.888;9.134;2023-04-25T01:36:09;2.27;;;2.13;;
6549;SDS011;15142;48.888;9.134;2023-04-25T01:38:37;2.20;;;2.00;;
6549;SDS011;15142;48.888;9.134;2023-04-25T01:41:06;3.70;;;3.37;;
6549;SDS011;15142;48.888;9.134;2023-04-25T01:43:35;3.03;;;2.83;;
6549;SDS011;15142;48.888;9.134;2023-04-25T01:46:04;2.67;;;2.47;;
6549;SDS011;15142;48.888;9.134;2023-04-25T01:48:33;5.87;;;2.60;;
6549;SDS011;15142;48.888;9.134;2023-04-25T01:51:01;2.83;;;2.63;;
6549;SDS011;15142;48.888;9.134;2023-04-25T01:53:33;2.30;;;2.10;;
6549;SDS011;15142;48.888;9.134;2023-04-25T01:56:03;2.50;;;2.30;;
6549;SDS011;15142;48.888;9.134;2023-04-25T01:58:34;2.80;;;2.43;;
6549;SDS011;15142;48.888;9.134;2023-04-25T02:01:29;3.27;;;2.97;;
6549;SDS011;15142;48.888;9.134;2023-04-25T02:04:12;5.23;;;1.90;;
6549;SDS011;15142;48.888;9.134;2023-04-25T02:06:41;2.67;;;2.43;;
6549;SDS011;15142;48.888;9.134;2023-04-25T02:09:13;4.73;;;2.17;;
6549;SDS011;15142;48.888;9.134;2023-04-25T02:11:46;3.63;;;3.07;;
6549;SDS011;15142;48.888;9.134;2023-04-25T02:14:44;3.60;;;2.87;;
6549;SDS011;15142;48.888;9.134;2023-04-25T02:17:18;3.07;;;2.80;;
6549;SDS011;15142;48.888;9.134;2023-04-25T02:19:47;2.43;;;2.33;;
6549;SDS011;15142;48.888;9.134;2023-04-25T02:22:16;4.97;;;2.97;;
6549;SDS011;15142;48.888;9.134;2023-04-25T02:24:47;6.77;;;2.67;;
6549;SDS011;15142;48.888;9.134;2023-04-25T02:27:16;3.13;;;2.87;;
6549;SDS011;15142;48.888;9.134;2023-04-25T02:29:44;3.10;;;2.80;;
6549;SDS011;15142;48.888;9.134;2023-04-25T02:32:13;3.30;;;3.00;;
6549;SDS011;15142;48.888;9.134;2023-04-25T02:34:42;3.40;;;2.93;;
6549;SDS011;15142;48.888;9.134;2023-04-25T02:37:10;2.80;;;2.60;;
6549;SDS011;15142;48.888;9.134;2023-04-25T02:39:39;3.47;;;2.33;;
6549;SDS011;15142;48.888;9.134;2023-04-25T02:42:10;4.80;;;3.13;;
6549;SDS011;15142;48.888;9.134;2023-04-25T02:44:39;4.03;;;3.33;;
6549;SDS011;15142;48.888;9.134;2023-04-25T02:47:07;4.10;;;2.97;;
6549;SDS011;15142;48.888;9.134;2023-04-25T02:49:36;2.57;;;2.47;;
6549;SDS011;15142;48.888;9.134;2023-04-25T02:52:05;3.07;;;2.63;;
6549;SDS011;15142;48.888;9.134;2023-04-25T02:54:34;4.43;;;3.27;;
6549;SDS011;15142;48.888;9.134;2023-04-25T02:57:03;3.20;;;2.90;;
6549;SDS011;15142;48.888;9.134;2023-04-25T02:59:38;3.43;;;2.60;;
6549;SDS011;15142;48.888;9.134;2023-04-25T03:02:06;2.60;;;2.40;;
6549;SDS011;15142;48.888;9.134;2023-04-25T03:04:35;2.10;;;2.00;;
6549;SDS011;15142;48.888;9.134;2023-04-25T03:07:04;3.20;;;2.77;;
6549;SDS011;15142;48.888;9.134;2023-04-25T03:09:33;3.73;;;3.43;;
6549;SDS011;15142;48.888;9.134;2023-04-25T03:12:02;10.43;;;3.10;;
6549;SDS011;15142;48.888;9.134;2023-04-25T03:14:32;2.93;;;2.43;;
6549;SDS011;15142;48.888;9.134;2023-04-25T03:17:03;2.53;;;2.37;;
6549;SDS011;15142;48.888;9.134;2023-04-25T03:19:34;3.13;;;2.90;;
6549;SDS011;15142;48.888;9.134;2023-04-25T03:22:03;2.93;;;2.73;;
6549;SDS011;15142;48.888;9.134;2023-04-25T03:24:32;2.50;;;2.30;;
6549;SDS011;15142;48.888;9.134;2023-04-25T03:27:02;3.40;;;2.57;;
6549;SDS011;15142;48.888;9.134;2023-04-25T03:29:30;2.97;;;2.77;;
6549;SDS011;15142;48.888;9.134;2023-04-25T03:32:06;5.33;;;3.17;;
6549;SDS011;15142;48.888;9.134;2023-04-25T03:34:34;2.50;;;2.30;;
6549;SDS011;15142;48.888;9.134;2023-04-25T03:37:03;3.30;;;2.77;;
6549;SDS011;15142;48.888;9.134;2023-04-25T03:39:36;2.93;;;2.73;;
6549;SDS011;15142;48.888;9.134;2023-04-25T03:42:06;2.87;;;2.60;;
6549;SDS011;15142;48.888;9.134;2023-04-25T03:44:35;3.00;;;2.50;;
6549;SDS011;15142;48.888;9.134;2023-04-25T03:47:06;9.47;;;3.17;;
6549;SDS011;15142;48.888;9.134;2023-04-25T03:49:35;3.17;;;2.93;;
6549;SDS011;15142;48.888;9.134;2023-04-25T03:52:05;2.97;;;2.73;;
6549;SDS011;15142;48.888;9.134;2023-04-25T03:54:38;3.13;;;2.17;;
6549;SDS011;15142;48.888;9.134;2023-04-25T03:57:15;4.63;;;2.50;;
6549;SDS011;15142;48.888;9.134;2023-04-25T03:59:44;3.93;;;3.20;;
6549;SDS011;15142;48.888;9.134;2023-04-25T04:02:17;2.73;;;2.53;;
6549;SDS011;15142;48.888;9.134;2023-04-25T04:04:46;4.77;;;2.87;;
6549;SDS011;15142;48.888;9.134;2023-04-25T04:07:15;4.23;;;2.80;;
6549;SDS011;15142;48.888;9.134;2023-04-25T04:09:46;5.47;;;3.40;;
6549;SDS011;15142;48.888;9.134;2023-04-25T04:12:23;3.23;;;2.90;;
6549;SDS011;15142;48.888;9.134;2023-04-25T04:14:52;2.80;;;2.50;;
6549;SDS011;15142;48.888;9.134;2023-04-25T04:17:23;3.60;;;3.30;;
6549;SDS011;15142;48.888;9.134;2023-04-25T04:19:52;3.93;;;3.57;;
6549;SDS011;15142;48.888;9.134;2023-04-25T04:22:21;5.07;;;3.77;;
6549;SDS011;15142;48.888;9.134;2023-04-25T04:24:55;3.23;;;2.93;;
6549;SDS011;15142;48.888;9.134;2023-04-25T04:27:59;3.80;;;3.40;;
6549;SDS011;15142;48.888;9.134;2023-04-25T04:30:37;6.80;;;3.90;;
6549;SDS011;15142;48.888;9.134;2023-04-25T04:33:10;5.13;;;3.40;;
6549;SDS011;15142;48.888;9.134;2023-04-25T04:35:41;7.67;;;4.30;;
6549;SDS011;15142;48.888;9.134;2023-04-25T04:38:10;3.40;;;3.10;;
6549;SDS011;15142;48.888;9.134;2023-04-25T04:40:40;3.53;;;3.23;;
6549;SDS011;15142;48.888;9.134;2023-04-25T04:43:17;4.80;;;4.30;;
6549;SDS011;15142;48.888;9.134;2023-04-25T04:46:01;3.87;;;3.57;;
6549;SDS011;15142;48.888;9.134;2023-04-25T04:48:56;11.57;;;4.10;;
6549;SDS011;15142;48.888;9.134;2023-04-25T04:51:49;4.00;;;3.57;;
6549;SDS011;15142;48.888;9.134;2023-04-25T04:54:34;3.77;;;3.53;;
6549;SDS011;15142;48.888;9.134;2023-04-25T04:57:13;3.73;;;3.17;;
6549;SDS011;15142;48.888;9.134;2023-04-25T04:59:57;5.77;;;4.47;;
6549;SDS011;15142;48.888;9.134;2023-04-25T05:03:04;6.47;;;3.73;;
6549;SDS011;15142;48.888;9.134;2023-04-25T05:05:56;3.57;;;3.27;;
6549;SDS011;15142;48.888;9.134;2023-04-25T05:08:25;5.90;;;3.53;;
6549;SDS011;15142;48.888;9.134;2023-04-25T05:11:08;4.67;;;4.10;;
6549;SDS011;15142;48.888;9.134;2023-04-25T05:13:48;4.67;;;3.80;;
6549;SDS011;15142;48.888;9.134;2023-04-25T05:16:34;2.90;;;2.67;;
6549;SDS011;15142;48.888;9.134;2023-04-25T05:19:19;3.80;;;3.50;;
6549;SDS011;15142;48.888;9.134;2023-04-25T05:22:06;3.77;;;3.43;;
6549;SDS011;15142;48.888;9.134;2023-04-25T05:24:50;3.87;;;2.90;;
6549;SDS011;15142;48.888;9.134;2023-04-25T05:27:37;6.33;;;2.80;;
6549;SDS011;15142;48.888;9.134;2023-04-25T05:30:27;3.23;;;2.97;;
6549;SDS011;15142;48.888;9.134;2023-04-25T05:33:03;7.83;;;3.77;;
6549;SDS011;15142;48.888;9.134;2023-04-25T05:35:32;3.77;;;3.17;;
6549;SDS011;15142;48.888;9.134;2023-04-25T05:38:03;10.10;;;3.70;;
6549;SDS011;15142;48.888;9.134;2023-04-25T05:41:01;4.93;;;3.80;;
6549;SDS011;15142;48.888;9.134;2023-04-25T05:43:52;5.40;;;3.67;;
6549;SDS011;15142;48.888;9.134;2023-04-25T05:46:28;4.20;;;3.33;;
6549;SDS011;15142;48.888;9.134;2023-04-25T05:49:12;3.33;;;3.07;;
6549;SDS011;15142;48.888;9.134;2023-04-25T05:52:03;4.40;;;3.40;;
6549;SDS011;15142;48.888;9.134;2023-04-25T05:54:34;3.60;;;3.30;;
6549;SDS011;15142;48.888;9.134;2023-04-25T05:57:03;3.30;;;3.00;;
6549;SDS011;15142;48.888;9.134;2023-04-25T05:59:32;5.47;;;4.97;;
6549;SDS011;15142;48.888;9.134;2023-04-25T06:02:01;4.80;;;4.00;;
6549;SDS011;15142;48.888;9.134;2023-04-25T06:04:34;4.60;;;3.70;;
6549;SDS011;15142;48.888;9.134;2023-04-25T06:07:03;7.03;;;3.37;;
6549;SDS011;15142;48.888;9.134;2023-04-25T06:09:34;3.90;;;3.50;;
6549;SDS011;15142;48.888;9.134;2023-04-25T06:12:07;4.30;;;3.20;;
6549;SDS011;15142;48.888;9.134;2023-04-25T06:14:36;4.13;;;3.73;;
6549;SDS011;15142;48.888;9.134;2023-04-25T06:17:04;3.67;;;3.00;;
6549;SDS011;15142;48.888;9.134;2023-04-25T06:19:35;5.40;;;3.13;;
6549;SDS011;15142;48.888;9.134;2023-04-25T06:22:04;4.60;;;2.93;;
6549;SDS011;15142;48.888;9.134;2023-04-25T06:24:36;6.80;;;3.67;;
6549;SDS011;15142;48.888;9.134;2023-04-25T06:27:05;3.63;;;3.30;;
6549;SDS011;15142;48.888;9.134;2023-04-25T06:29:34;2.93;;;2.73;;
6549;SDS011;15142;48.888;9.134;2023-04-25T06:32:03;3.73;;;3.43;;
6549;SDS011;15142;48.888;9.134;2023-04-25T06:34:32;3.20;;;2.87;;
6549;SDS011;15142;48.888;9.134;2023-04-25T06:37:01;2.93;;;2.73;;
6549;SDS011;15142;48.888;9.134;2023-04-25T06:39:30;4.10;;;3.67;;
6549;SDS011;15142;48.888;9.134;2023-04-25T06:42:01;4.80;;;2.73;;
6549;SDS011;15142;48.888;9.134;2023-04-25T06:44:56;5.00;;;2.83;;
6549;SDS011;15142;48.888;9.134;2023-04-25T06:47:24;3.83;;;3.47;;
6549;SDS011;15142;48.888;9.134;2023-04-25T06:49:53;10.30;;;3.80;;
6549;SDS011;15142;48.888;9.134;2023-04-25T06:52:22;3.63;;;3.30;;
6549;SDS011;15142;48.888;9.134;2023-04-25T06:54:52;3.60;;;3.37;;
6549;SDS011;15142;48.888;9.134;2023-04-25T06:57:35;3.07;;;2.83;;
6549;SDS011;15142;48.888;9.134;2023-04-25T07:00:24;4.63;;;2.87;;
6549;SDS011;15142;48.888;9.134;2023-04-25T07:02:54;4.53;;;4.13;;
6549;SDS011;15142;48.888;9.134;2023-04-25T07:05:22;3.73;;;3.43;;
6549;SDS011;15142;48.888;9.134;2023-04-25T07:07:51;4.90;;;4.27;;
6549;SDS011;15142;48.888;9.134;2023-04-25T07:10:20;5.20;;;3.57;;
6549;SDS011;15142;48.888;9.134;2023-04-25T07:12:52;4.80;;;4.10;;
6549;SDS011;15142;48.888;9.134;2023-04-25T07:15:21;4.83;;;4.10;;
6549;SDS011;15142;48.888;9.134;2023-04-25T07:17:50;6.47;;;4.63;;
6549;SDS011;15142;48.888;9.134;2023-04-25T07:20:19;5.00;;;4.40;;
6549;SDS011;15142;48.888;9.134;2023-04-25T07:22:48;4.60;;;4.00;;
6549;SDS011;15142;48.888;9.134;2023-04-25T07:25:17;4.77;;;4.00;;
6549;SDS011;15142;48.888;9.134;2023-04-25T07:27:46;4.67;;;4.00;;
6549;SDS011;15142;48.888;9.134;2023-04-25T07:30:19;3.30;;;2.70;;
6549;SDS011;15142;48.888;9.134;2023-04-25T07:32:48;7.40;;;3.40;;
6549;SDS011;15142;48.888;9.134;2023-04-25T07:35:17;4.47;;;3.13;;
6549;SDS011;15142;48.888;9.134;2023-04-25T07:37:46;5.40;;;3.83;;
6549;SDS011;15142;48.888;9.134;2023-04-25T07:40:18;3.53;;;3.23;;
6549;SDS011;15142;48.888;9.134;2023-04-25T07:42:51;4.13;;;3.73;;
6549;SDS011;15142;48.888;9.134;2023-04-25T07:45:36;10.63;;;4.67;;
6549;SDS011;15142;48.888;9.134;2023-04-25T07:48:05;7.43;;;3.00;;
6549;SDS011;15142;48.888;9.134;2023-04-25T07:50:36;4.20;;;2.80;;
6549;SDS011;15142;48.888;9.134;2023-04-25T07:53:05;5.47;;;4.00;;
6549;SDS011;15142;48.888;9.134;2023-04-25T07:55:43;4.43;;;3.03;;
6549;SDS011;15142;48.888;9.134;2023-04-25T07:58:15;5.80;;;3.47;;
6549;SDS011;15142;48.888;9.134;2023-04-25T08:00:49;5.27;;;3.77;;
6549;SDS011;15142;48.888;9.134;2023-04-25T08:03:45;9.83;;;3.60;;
6549;SDS011;15142;48.888;9.134;2023-04-25T08:06:20;6.20;;;4.17;;
6549;SDS011;15142;48.888;9.134;2023-04-25T08:08:58;3.77;;;3.47;;
6549;SDS011;15142;48.888;9.134;2023-04-25T08:11:34;6.67;;;2.90;;
6549;SDS011;15142;48.888;9.134;2023-04-25T08:14:03;3.53;;;3.00;;
6549;SDS011;15142;48.888;9.134;2023-04-25T08:16:35;6.03;;;3.40;;
6549;SDS011;15142;48.888;9.134;2023-04-25T08:19:04;4.73;;;4.23;;
6549;SDS011;15142;48.888;9.134;2023-04-25T08:21:34;8.20;;;4.27;;
6549;SDS011;15142;48.888;9.134;2023-04-25T08:24:06;3.77;;;3.47;;
6549;SDS011;15142;48.888;9.134;2023-04-25T08:26:38;4.10;;;3.70;;
6549;SDS011;15142;48.888;9.134;2023-04-25T08:29:08;3.60;;;3.30;;
6549;SDS011;15142;48.888;9.134;2023-04-25T08:31:42;3.53;;;3.20;;
6549;SDS011;15142;48.888;9.134;2023-04-25T08:34:13;4.87;;;3.73;;
6549;SDS011;15142;48.888;9.134;2023-04-25T08:36:44;3.77;;;3.43;;
6549;SDS011;15142;48.888;9.134;2023-04-25T08:39:37;3.73;;;3.27;;
6549;SDS011;15142;48.888;9.134;2023-04-25T08:42:25;3.13;;;2.37;;
6549;SDS011;15142;48.888;9.134;2023-04-25T08:44:55;5.40;;;3.67;;
6549;SDS011;15142;48.888;9.134;2023-04-25T08:47:32;3.90;;;3.57;;
6549;SDS011;15142;48.888;9.134;2023-04-25T08:50:03;4.70;;;3.50;;
6549;SDS011;15142;48.888;9.134;2023-04-25T08:52:35;8.60;;;4.83;;
6549;SDS011;15142;48.888;9.134;2023-04-25T08:55:07;8.90;;;5.90;;
6549;SDS011;15142;48.888;9.134;2023-04-25T08:57:38;6.17;;;5.57;;
6549;SDS011;15142;48.888;9.134;2023-04-25T09:00:09;5.53;;;4.97;;
6549;SDS011;15142;48.888;9.134;2023-04-25T09:02:44;9.37;;;5.33;;
6549;SDS011;15142;48.888;9.134;2023-04-25T09:05:14;5.60;;;4.70;;
6549;SDS011;15142;48.888;9.134;2023-04-25T09:07:44;6.60;;;5.20;;
6549;SDS011;15142;48.888;9.134;2023-04-25T09:10:12;6.27;;;5.60;;
6549;SDS011;15142;48.888;9.134;2023-04-25T09:12:41;7.30;;;5.40;;
6549;SDS011;15142;48.888;9.134;2023-04-25T09:15:10;8.23;;;6.27;;
6549;SDS011;15142;48.888;9.134;2023-04-25T09:18:02;7.40;;;6.23;;
6549;SDS011;15142;48.888;9.134;2023-04-25T09:20:41;8.90;;;6.17;;
6549;SDS011;15142;48.888;9.134;2023-04-25T09:23:10;8.40;;;7.30;;
6549;SDS011;15142;48.888;9.134;2023-04-25T09:25:39;11.60;;;6.90;;
6549;SDS011;15142;48.888;9.134;2023-04-25T09:28:10;8.50;;;6.70;;
6549;SDS011;15142;48.888;9.134;2023-04-25T09:30:39;10.80;;;7.33;;
6549;SDS011;15142;48.888;9.134;2023-04-25T09:33:29;7.20;;;5.93;;
6549;SDS011;15142;48.888;9.134;2023-04-25T09:36:01;7.80;;;4.60;;
6549;SDS011;15142;48.888;9.134;2023-04-25T09:38:54;9.00;;;6.17;;
6549;SDS011;15142;48.888;9.134;2023-04-25T09:41:27;7.47;;;4.87;;
6549;SDS011;15142;48.888;9.134;2023-04-25T09:43:59;5.67;;;4.93;;
6549;SDS011;15142;48.888;9.134;2023-04-25T09:46:33;3.77;;;3.40;;
6549;SDS011;15142;48.888;9.134;2023-04-25T09:49:08;5.07;;;4.57;;
6549;SDS011;15142;48.888;9.134;2023-04-25T09:51:53;4.53;;;4.00;;
6549;SDS011;15142;48.888;9.134;2023-04-25T09:54:25;6.83;;;4.80;;
6549;SDS011;15142;48.888;9.134;2023-04-25T09:57:05;4.60;;;2.93;;
6549;SDS011;15142;48.888;9.134;2023-04-25T09:59:42;3.30;;;3.10;;
6549;SDS011;15142;48.888;9.134;2023-04-25T10:02:13;4.27;;;3.97;;
6549;SDS011;15142;48.888;9.134;2023-04-25T10:04:47;4.80;;;3.77;;
6549;SDS011;15142;48.888;9.134;2023-04-25T10:07:22;5.30;;;4.50;;
6549;SDS011;15142;48.888;9.134;2023-04-25T10:09:55;6.87;;;4.20;;
6549;SDS011;15142;48.888;9.134;2023-04-25T10:12:28;7.27;;;5.53;;
6549;SDS011;15142;48.888;9.134;2023-04-25T10:14:56;6.13;;;4.80;;
6549;SDS011;15142;48.888;9.134;2023-04-25T10:17:26;6.77;;;5.40;;
6549;SDS011;15142;48.888;9.134;2023-04-25T10:19:58;5.13;;;4.40;;
6549;SDS011;15142;48.888;9.134;2023-04-25T10:22:31;4.63;;;4.20;;
6549;SDS011;15142;48.888;9.134;2023-04-25T10:25:04;4.67;;;4.10;;
6549;SDS011;15142;48.888;9.134;2023-04-25T10:27:34;6.10;;;4.30;;
6549;SDS011;15142;48.888;9.134;2023-04-25T10:30:04;2.73;;;2.53;;
6549;SDS011;15142;48.888;9.134;2023-04-25T10:32:38;6.17;;;3.10;;
6549;SDS011;15142;48.888;9.134;2023-04-25T10:35:12;6.30;;;3.60;;
6549;SDS011;15142;48.888;9.134;2023-04-25T10:40:34;4.93;;;4.00;;
6549;SDS011;15142;48.888;9.134;2023-04-25T10:46:02;5.20;;;4.70;;
6549;SDS011;15142;48.888;9.134;2023-04-25T10:48:45;5.67;;;4.43;;
6549;SDS011;15142;48.888;9.134;2023-04-25T10:51:19;5.73;;;4.87;;
6549;SDS011;15142;48.888;9.134;2023-04-25T10:53:59;5.07;;;4.57;;
6549;SDS011;15142;48.888;9.134;2023-04-25T10:56:29;4.03;;;3.73;;
6549;SDS011;15142;48.888;9.134;2023-04-25T10:59:06;7.90;;;4.73;;
6549;SDS011;15142;48.888;9.134;2023-04-25T11:01:37;4.40;;;3.20;;
6549;SDS011;15142;48.888;9.134;2023-04-25T11:04:18;5.10;;;4.17;;
6549;SDS011;15142;48.888;9.134;2023-04-25T11:06:55;2.73;;;2.53;;
6549;SDS011;15142;48.888;9.134;2023-04-25T11:09:30;4.17;;;3.73;;
6549;SDS011;15142;48.888;9.134;2023-04-25T11:12:01;4.00;;;3.40;;
6549;SDS011;15142;48.888;9.134;2023-04-25T11:14:30;3.73;;;3.40;;
6549;SDS011;15142;48.888;9.134;2023-04-25T11:16:59;2.90;;;2.70;;
6549;SDS011;15142;48.888;9.134;2023-04-25T11:19:28;6.43;;;3.23;;
6549;SDS011;15142;48.888;9.134;2023-04-25T11:22:01;3.00;;;2.70;;
6549;SDS011;15142;48.888;9.134;2023-04-25T11:24:32;4.67;;;3.73;;
6549;SDS011;15142;48.888;9.134;2023-04-25T11:27:02;4.03;;;3.20;;
6549;SDS011;15142;48.888;9.134;2023-04-25T11:29:33;5.50;;;3.10;;
6549;SDS011;15142;48.888;9.134;2023-04-25T11:32:02;3.90;;;3.60;;
6549;SDS011;15142;48.888;9.134;2023-04-25T11:34:32;4.37;;;3.90;;
6549;SDS011;15142;48.888;9.134;2023-04-25T11:37:04;4.93;;;3.93;;
6549;SDS011;15142;48.888;9.134;2023-04-25T11:39:33;5.47;;;3.63;;
6549;SDS011;15142;48.888;9.134;2023-04-25T11:42:02;4.53;;;3.83;;
6549;SDS011;15142;48.888;9.134;2023-04-25T11:44:32;6.67;;;3.77;;
6549;SDS011;15142;48.888;9.134;2023-04-25T11:47:01;3.33;;;3.00;;
6549;SDS011;15142;48.888;9.134;2023-04-25T11:49:30;3.60;;;3.30;;
6549;SDS011;15142;48.888;9.134;2023-04-25T11:51:58;16.40;;;9.30;;
6549;SDS011;15142;48.888;9.134;2023-04-25T11:54:29;4.40;;;4.00;;
6549;SDS011;15142;48.888;9.134;2023-04-25T11:56:58;13.23;;;8.00;;
6549;SDS011;15142;48.888;9.134;2023-04-25T11:59:27;7.97;;;4.33;;
6549;SDS011;15142;48.888;9.134;2023-04-25T12:01:56;4.97;;;3.83;;
6549;SDS011;15142;48.888;9.134;2023-04-25T12:04:29;4.40;;;4.00;;
6549;SDS011;15142;48.888;9.134;2023-04-25T12:06:59;7.90;;;4.60;;
6549;SDS011;15142;48.888;9.134;2023-04-25T12:09:31;7.00;;;5.20;;
6549;SDS011;15142;48.888;9.134;2023-04-25T12:12:01;6.07;;;4.20;;
6549;SDS011;15142;48.888;9.134;2023-04-25T12:14:31;5.90;;;4.70;;
6549;SDS011;15142;48.888;9.134;2023-04-25T12:17:03;5.43;;;4.00;;
6549;SDS011;15142;48.888;9.134;2023-04-25T12:19:33;6.87;;;4.30;;
6549;SDS011;15142;48.888;9.134;2023-04-25T12:22:18;5.73;;;4.93;;
6549;SDS011;15142;48.888;9.134;2023-04-25T12:24:50;6.00;;;4.50;;
6549;SDS011;15142;48.888;9.134;2023-04-25T12:27:19;5.20;;;4.70;;
6549;SDS011;15142;48.888;9.134;2023-04-25T12:29:51;10.40;;;5.40;;
6549;SDS011;15142;48.888;9.134;2023-04-25T12:32:21;4.70;;;4.20;;
6549;SDS011;15142;48.888;9.134;2023-04-25T12:34:49;5.50;;;4.07;;
6549;SDS011;15142;48.888;9.134;2023-04-25T12:37:18;4.50;;;4.10;;
6549;SDS011;15142;48.888;9.134;2023-04-25T12:39:47;5.80;;;3.83;;
6549;SDS011;15142;48.888;9.134;2023-04-25T12:42:18;5.70;;;4.17;;
6549;SDS011;15142;48.888;9.134;2023-04-25T12:44:46;6.60;;;4.23;;
6549;SDS011;15142;48.888;9.134;2023-04-25T12:47:15;4.27;;;3.87;;
6549;SDS011;15142;48.888;9.134;2023-04-25T12:49:43;5.33;;;4.33;;
6549;SDS011;15142;48.888;9.134;2023-04-25T12:52:12;7.90;;;4.60;;
6549;SDS011;15142;48.888;9.134;2023-04-25T12:54:41;6.93;;;4.10;;
6549;SDS011;15142;48.888;9.134;2023-04-25T12:57:12;8.73;;;4.87;;
6549;SDS011;15142;48.888;9.134;2023-04-25T12:59:41;6.07;;;5.27;;
6549;SDS011;15142;48.888;9.134;2023-04-25T13:02:09;7.20;;;5.43;;
6549;SDS011;15142;48.888;9.134;2023-04-25T13:04:38;9.10;;;6.20;;
6549;SDS011;15142;48.888;9.134;2023-04-25T13:07:06;7.07;;;5.33;;
6549;SDS011;15142;48.888;9.134;2023-04-25T13:09:35;7.67;;;6.20;;
6549;SDS011;15142;48.888;9.134;2023-04-25T13:12:04;13.10;;;6.73;;
6549;SDS011;15142;48.888;9.134;2023-04-25T13:14:35;10.83;;;6.00;;
6549;SDS011;15142;48.888;9.134;2023-04-25T13:17:04;9.93;;;5.73;;
6549;SDS011;15142;48.888;9.134;2023-04-25T13:19:33;8.00;;;6.27;;
6549;SDS011;15142;48.888;9.134;2023-04-25T13:22:01;7.10;;;6.00;;
6549;SDS011;15142;48.888;9.134;2023-04-25T13:24:30;12.43;;;6.90;;
6549;SDS011;15142;48.888;9.134;2023-04-25T13:26:58;9.43;;;7.47;;
6549;SDS011;15142;48.888;9.134;2023-04-25T13:29:27;15.60;;;7.47;;
6549;SDS011;15142;48.888;9.134;2023-04-25T13:31:58;9.00;;;7.00;;
6549;SDS011;15142;48.888;9.134;2023-04-25T13:34:27;12.43;;;7.13;;
6549;SDS011;15142;48.888;9.134;2023-04-25T13:36:57;8.60;;;6.43;;
6549;SDS011;15142;48.888;9.134;2023-04-25T13:39:26;15.10;;;7.10;;
6549;SDS011;15142;48.888;9.134;2023-04-25T13:41:55;10.83;;;6.87;;
6549;SDS011;15142;48.888;9.134;2023-04-25T13:44:24;7.90;;;5.73;;
6549;SDS011;15142;48.888;9.134;2023-04-25T13:46:52;7.50;;;6.23;;
6549;SDS011;15142;48.888;9.134;2023-04-25T13:49:23;9.53;;;6.50;;
6549;SDS011;15142;48.888;9.134;2023-04-25T13:51:51;8.40;;;6.60;;
6549;SDS011;15142;48.888;9.134;2023-04-25T13:54:20;20.60;;;7.00;;
6549;SDS011;15142;48.888;9.134;2023-04-25T13:56:49;11.40;;;6.47;;
6549;SDS011;15142;48.888;9.134;2023-04-25T13:59:20;13.57;;;6.40;;
6549;SDS011;15142;48.888;9.134;2023-04-25T14:01:49;5.93;;;5.30;;
6549;SDS011;15142;48.888;9.134;2023-04-25T14:04:17;7.93;;;6.10;;
6549;SDS011;15142;48.888;9.134;2023-04-25T14:06:48;9.33;;;6.30;;
6549;SDS011;15142;48.888;9.134;2023-04-25T14:09:18;7.60;;;5.43;;
6549;SDS011;15142;48.888;9.134;2023-04-25T14:11:50;13.50;;;5.20;;
6549;SDS011;15142;48.888;9.134;2023-04-25T14:14:19;5.13;;;4.63;;
6549;SDS011;15142;48.888;9.134;2023-04-25T14:16:49;12.70;;;5.77;;
6549;SDS011;15142;48.888;9.134;2023-04-25T14:19:19;8.93;;;5.03;;
6549;SDS011;15142;48.888;9.134;2023-04-25T14:21:51;6.83;;;6.13;;
6549;SDS011;15142;48.888;9.134;2023-04-25T14:24:19;11.13;;;5.30;;
6549;SDS011;15142;48.888;9.134;2023-04-25T14:26:48;9.97;;;5.67;;
6549;SDS011;15142;48.888;9.134;2023-04-25T14:29:17;10.03;;;6.70;;
6549;SDS011;15142;48.888;9.134;2023-04-25T14:31:45;9.87;;;5.40;;
6549;SDS011;15142;48.888;9.134;2023-04-25T14:34:13;10.17;;;6.60;;
6549;SDS011;15142;48.888;9.134;2023-04-25T14:36:42;10.80;;;7.43;;
6549;SDS011;15142;48.888;9.134;2023-04-25T14:39:13;14.07;;;5.07;;
6549;SDS011;15142;48.888;9.134;2023-04-25T14:41:42;7.53;;;5.83;;
6549;SDS011;15142;48.888;9.134;2023-04-25T14:44:11;6.20;;;4.97;;
6549;SDS011;15142;48.888;9.134;2023-04-25T14:46:40;12.63;;;5.37;;
6549;SDS011;15142;48.888;9.134;2023-04-25T14:49:09;12.33;;;5.33;;
6549;SDS011;15142;48.888;9.134;2023-04-25T14:51:37;8.53;;;6.00;;
6549;SDS011;15142;48.888;9.134;2023-04-25T14:54:06;8.13;;;4.73;;
6549;SDS011;15142;48.888;9.134;2023-04-25T14:56:38;9.40;;;5.60;;
6549;SDS011;15142;48.888;9.134;2023-04-25T14:59:07;8.57;;;5.63;;
6549;SDS011;15142;48.888;9.134;2023-04-25T15:01:35;10.50;;;5.30;;
6549;SDS011;15142;48.888;9.134;2023-04-25T15:04:04;28.47;;;8.77;;
6549;SDS011;15142;48.888;9.134;2023-04-25T15:06:33;4.53;;;3.97;;
6549;SDS011;15142;48.888;9.134;2023-04-25T15:09:01;6.33;;;4.17;;
6549;SDS011;15142;48.888;9.134;2023-04-25T15:11:31;4.63;;;4.17;;
6549;SDS011;15142;48.888;9.134;2023-04-25T15:14:02;5.90;;;4.70;;
6549;SDS011;15142;48.888;9.134;2023-04-25T15:16:31;6.00;;;4.97;;
6549;SDS011;15142;48.888;9.134;2023-04-25T15:18:59;6.50;;;4.07;;
6549;SDS011;15142;48.888;9.134;2023-04-25T15:21:29;6.10;;;4.77;;
6549;SDS011;15142;48.888;9.134;2023-04-25T15:23:57;7.67;;;5.33;;
6549;SDS011;15142;48.888;9.134;2023-04-25T15:26:26;6.20;;;4.17;;
6549;SDS011;15142;48.888;9.134;2023-04-25T15:28:55;5.93;;;5.33;;
6549;SDS011;15142;48.888;9.134;2023-04-25T15:31:27;10.53;;;4.70;;
6549;SDS011;15142;48.888;9.134;2023-04-25T15:33:55;9.17;;;5.10;;
6549;SDS011;15142;48.888;9.134;2023-04-25T15:36:24;8.20;;;5.90;;